sensor_id;sensor_type;location;lat;lon;timestamp;temperature;humidity
54540;SHT30;40438;52.992;18.604;2023-11-22T00:01:58;-1.79;77.44
54540;SHT30;40438;52.992;18.604;2023-11-22T00:04:24;-1.80;77.82
54540;SHT30;40438;52.992;18.604;2023-11-22T00:06:50;-1.79;77.84
54540;SHT30;40438;52.992;18.604;2023-11-22T00:09:16;-1.82;78.13
54540;SHT30;40438;52.992;18.604;2023-11-22T00:11:41;-1.80;78.21
54540;SHT30;40438;52.992;18.604;2023-11-22T00:14:09;-1.83;78.52
54540;SHT30;40438;52.992;18.604;2023-11-22T00:16:34;-1.83;78.53
54540;SHT30;40438;52.992;18.604;2023-11-22T00:19:00;-1.79;78.63
54540;SHT30;40438;52.992;18.604;2023-11-22T00:21:26;-1.75;78.76
54540;SHT30;40438;52.992;18.604;2023-11-22T00:23:51;-1.78;79.00
54540;SHT30;40438;52.992;18.604;2023-11-22T00:26:17;-1.82;79.14
54540;SHT30;40438;52.992;18.604;2023-11-22T00:28:51;-1.86;79.38
54540;SHT30;40438;52.992;18.604;2023-11-22T00:31:18;-1.83;79.37
54540;SHT30;40438;52.992;18.604;2023-11-22T00:33:44;-1.87;79.57
54540;SHT30;40438;52.992;18.604;2023-11-22T00:36:10;-1.82;79.47
54540;SHT30;40438;52.992;18.604;2023-11-22T00:38:35;-1.86;79.72
54540;SHT30;40438;52.992;18.604;2023-11-22T00:41:01;-1.87;79.83
54540;SHT30;40438;52.992;18.604;2023-11-22T00:43:27;-1.86;79.86
54540;SHT30;40438;52.992;18.604;2023-11-22T00:45:53;-1.87;80.00
54540;SHT30;40438;52.992;18.604;2023-11-22T00:48:20;-1.97;80.18
54540;SHT30;40438;52.992;18.604;2023-11-22T00:50:46;-1.96;80.26
54540;SHT30;40438;52.992;18.604;2023-11-22T00:53:12;-1.94;80.34
54540;SHT30;40438;52.992;18.604;2023-11-22T00:55:38;-1.96;80.48
54540;SHT30;40438;52.992;18.604;2023-11-22T00:58:03;-1.99;80.68
54540;SHT30;40438;52.992;18.604;2023-11-22T01:00:29;-1.97;80.62
54540;SHT30;40438;52.992;18.604;2023-11-22T01:02:55;-1.96;80.70
54540;SHT30;40438;52.992;18.604;2023-11-22T01:05:22;-1.96;80.69
54540;SHT30;40438;52.992;18.604;2023-11-22T01:07:48;-1.97;80.83
54540;SHT30;40438;52.992;18.604;2023-11-22T01:10:14;-2.06;80.99
54540;SHT30;40438;52.992;18.604;2023-11-22T01:12:40;-2.06;81.13
54540;SHT30;40438;52.992;18.604;2023-11-22T01:15:06;-2.03;81.10
54540;SHT30;40438;52.992;18.604;2023-11-22T01:17:32;-2.03;81.12
54540;SHT30;40438;52.992;18.604;2023-11-22T01:19:58;-2.06;81.19
54540;SHT30;40438;52.992;18.604;2023-11-22T01:22:25;-2.10;81.26
54540;SHT30;40438;52.992;18.604;2023-11-22T01:24:51;-2.07;81.33
54540;SHT30;40438;52.992;18.604;2023-11-22T01:27:17;-2.13;81.58
54540;SHT30;40438;52.992;18.604;2023-11-22T01:29:43;-2.13;81.61
54540;SHT30;40438;52.992;18.604;2023-11-22T01:32:09;-2.17;81.78
54540;SHT30;40438;52.992;18.604;2023-11-22T01:34:35;-2.18;81.83
54540;SHT30;40438;52.992;18.604;2023-11-22T01:37:00;-2.20;81.99
54540;SHT30;40438;52.992;18.604;2023-11-22T01:39:28;-2.21;82.08
54540;SHT30;40438;52.992;18.604;2023-11-22T01:41:53;-2.25;82.26
54540;SHT30;40438;52.992;18.604;2023-11-22T01:44:19;-2.25;82.35
54540;SHT30;40438;52.992;18.604;2023-11-22T01:46:45;-2.27;82.37
54540;SHT30;40438;52.992;18.604;2023-11-22T01:49:11;-2.31;82.43
54540;SHT30;40438;52.992;18.604;2023-11-22T01:51:37;-2.31;82.49
54540;SHT30;40438;52.992;18.604;2023-11-22T01:54:04;-2.31;82.48
54540;SHT30;40438;52.992;18.604;2023-11-22T01:56:31;-2.33;82.56
54540;SHT30;40438;52.992;18.604;2023-11-22T01:58:57;-2.36;82.60
54540;SHT30;40438;52.992;18.604;2023-11-22T02:01:24;-2.36;82.63
54540;SHT30;40438;52.992;18.604;2023-11-22T02:03:50;-2.37;82.71
54540;SHT30;40438;52.992;18.604;2023-11-22T02:06:16;-2.37;82.65
54540;SHT30;40438;52.992;18.604;2023-11-22T02:08:42;-2.38;82.71
54540;SHT30;40438;52.992;18.604;2023-11-22T02:11:08;-2.42;82.98
54540;SHT30;40438;52.992;18.604;2023-11-22T02:13:35;-2.41;82.90
54540;SHT30;40438;52.992;18.604;2023-11-22T02:16:01;-2.42;82.89
54540;SHT30;40438;52.992;18.604;2023-11-22T02:18:28;-2.44;83.02
54540;SHT30;40438;52.992;18.604;2023-11-22T02:20:55;-2.48;83.21
54540;SHT30;40438;52.992;18.604;2023-11-22T02:23:23;-2.50;83.15
54540;SHT30;40438;52.992;18.604;2023-11-22T02:25:49;-2.52;83.27
54540;SHT30;40438;52.992;18.604;2023-11-22T02:28:15;-2.54;83.40
54540;SHT30;40438;52.992;18.604;2023-11-22T02:30:41;-2.55;83.40
54540;SHT30;40438;52.992;18.604;2023-11-22T02:33:06;-2.54;83.43
54540;SHT30;40438;52.992;18.604;2023-11-22T02:35:32;-2.57;83.47
54540;SHT30;40438;52.992;18.604;2023-11-22T02:37:58;-2.58;83.50
54540;SHT30;40438;52.992;18.604;2023-11-22T02:40:26;-2.59;83.60
54540;SHT30;40438;52.992;18.604;2023-11-22T02:42:53;-2.57;83.65
54540;SHT30;40438;52.992;18.604;2023-11-22T02:45:20;-2.54;83.59
54540;SHT30;40438;52.992;18.604;2023-11-22T02:47:46;-2.57;83.62
54540;SHT30;40438;52.992;18.604;2023-11-22T02:50:12;-2.62;83.71
54540;SHT30;40438;52.992;18.604;2023-11-22T02:52:37;-2.61;83.81
54540;SHT30;40438;52.992;18.604;2023-11-22T02:55:04;-2.57;83.80
54540;SHT30;40438;52.992;18.604;2023-11-22T02:57:32;-2.58;83.69
54540;SHT30;40438;52.992;18.604;2023-11-22T02:59:58;-2.58;83.82
54540;SHT30;40438;52.992;18.604;2023-11-22T03:02:23;-2.57;83.83
54540;SHT30;40438;52.992;18.604;2023-11-22T03:04:49;-2.58;83.81
54540;SHT30;40438;52.992;18.604;2023-11-22T03:07:15;-2.61;83.94
54540;SHT30;40438;52.992;18.604;2023-11-22T03:09:41;-2.59;84.01
54540;SHT30;40438;52.992;18.604;2023-11-22T03:12:07;-2.61;84.10
54540;SHT30;40438;52.992;18.604;2023-11-22T03:14:34;-2.65;84.12
54540;SHT30;40438;52.992;18.604;2023-11-22T03:17:00;-2.66;84.21
54540;SHT30;40438;52.992;18.604;2023-11-22T03:19:25;-2.68;84.31
54540;SHT30;40438;52.992;18.604;2023-11-22T03:21:51;-2.66;84.30
54540;SHT30;40438;52.992;18.604;2023-11-22T03:24:17;-2.68;84.28
54540;SHT30;40438;52.992;18.604;2023-11-22T03:26:43;-2.69;84.31
54540;SHT30;40438;52.992;18.604;2023-11-22T03:29:09;-2.73;84.41
54540;SHT30;40438;52.992;18.604;2023-11-22T03:31:36;-2.76;84.49
54540;SHT30;40438;52.992;18.604;2023-11-22T03:34:02;-2.76;84.55
54540;SHT30;40438;52.992;18.604;2023-11-22T03:36:27;-2.79;84.75
54540;SHT30;40438;52.992;18.604;2023-11-22T03:38:53;-2.76;84.73
54540;SHT30;40438;52.992;18.604;2023-11-22T03:41:19;-2.79;84.73
54540;SHT30;40438;52.992;18.604;2023-11-22T03:43:45;-2.80;84.79
54540;SHT30;40438;52.992;18.604;2023-11-22T03:46:10;-2.79;84.77
54540;SHT30;40438;52.992;18.604;2023-11-22T03:48:39;-2.76;84.77
54540;SHT30;40438;52.992;18.604;2023-11-22T03:51:06;-2.78;84.79
54540;SHT30;40438;52.992;18.604;2023-11-22T03:53:32;-2.76;84.77
54540;SHT30;40438;52.992;18.604;2023-11-22T03:55:58;-2.78;84.83
54540;SHT30;40438;52.992;18.604;2023-11-22T03:58:23;-2.82;84.90
54540;SHT30;40438;52.992;18.604;2023-11-22T04:00:49;-2.83;85.00
54540;SHT30;40438;52.992;18.604;2023-11-22T04:03:15;-2.85;84.97
54540;SHT30;40438;52.992;18.604;2023-11-22T04:05:42;-2.80;85.04
54540;SHT30;40438;52.992;18.604;2023-11-22T04:08:08;-2.85;85.05
54540;SHT30;40438;52.992;18.604;2023-11-22T04:10:34;-2.86;84.99
54540;SHT30;40438;52.992;18.604;2023-11-22T04:13:00;-2.89;85.06
54540;SHT30;40438;52.992;18.604;2023-11-22T04:15:25;-2.90;85.11
54540;SHT30;40438;52.992;18.604;2023-11-22T04:17:51;-2.88;85.14
54540;SHT30;40438;52.992;18.604;2023-11-22T04:20:17;-2.93;85.13
54540;SHT30;40438;52.992;18.604;2023-11-22T04:22:44;-2.90;85.13
54540;SHT30;40438;52.992;18.604;2023-11-22T04:25:10;-2.88;85.07
54540;SHT30;40438;52.992;18.604;2023-11-22T04:27:36;-2.90;85.00
54540;SHT30;40438;52.992;18.604;2023-11-22T04:30:03;-2.90;84.98
54540;SHT30;40438;52.992;18.604;2023-11-22T04:32:28;-2.93;84.96
54540;SHT30;40438;52.992;18.604;2023-11-22T04:34:54;-2.93;85.07
54540;SHT30;40438;52.992;18.604;2023-11-22T04:37:20;-3.00;85.02
54540;SHT30;40438;52.992;18.604;2023-11-22T04:39:47;-3.00;85.10
54540;SHT30;40438;52.992;18.604;2023-11-22T04:42:13;-3.04;85.21
54540;SHT30;40438;52.992;18.604;2023-11-22T04:44:39;-3.10;85.22
54540;SHT30;40438;52.992;18.604;2023-11-22T04:47:04;-3.14;85.39
54540;SHT30;40438;52.992;18.604;2023-11-22T04:49:30;-3.23;85.68
54540;SHT30;40438;52.992;18.604;2023-11-22T04:51:56;-3.28;85.65
54540;SHT30;40438;52.992;18.604;2023-11-22T04:54:22;-3.30;85.71
54540;SHT30;40438;52.992;18.604;2023-11-22T04:56:49;-3.31;85.79
54540;SHT30;40438;52.992;18.604;2023-11-22T04:59:15;-3.30;85.82
54540;SHT30;40438;52.992;18.604;2023-11-22T05:01:41;-3.32;85.92
54540;SHT30;40438;52.992;18.604;2023-11-22T05:04:06;-3.30;85.91
54540;SHT30;40438;52.992;18.604;2023-11-22T05:06:32;-3.30;85.77
54540;SHT30;40438;52.992;18.604;2023-11-22T05:08:58;-3.30;85.76
54540;SHT30;40438;52.992;18.604;2023-11-22T05:11:24;-3.30;85.78
54540;SHT30;40438;52.992;18.604;2023-11-22T05:13:51;-3.32;85.77
54540;SHT30;40438;52.992;18.604;2023-11-22T05:16:17;-3.34;85.69
54540;SHT30;40438;52.992;18.604;2023-11-22T05:18:43;-3.38;85.74
54540;SHT30;40438;52.992;18.604;2023-11-22T05:21:08;-3.38;85.83
54540;SHT30;40438;52.992;18.604;2023-11-22T05:23:34;-3.35;85.82
54540;SHT30;40438;52.992;18.604;2023-11-22T05:26:00;-3.37;85.92
54540;SHT30;40438;52.992;18.604;2023-11-22T05:28:26;-3.40;85.92
54540;SHT30;40438;52.992;18.604;2023-11-22T05:30:53;-3.38;85.90
54540;SHT30;40438;52.992;18.604;2023-11-22T05:33:18;-3.40;85.98
54540;SHT30;40438;52.992;18.604;2023-11-22T05:35:44;-3.42;85.99
54540;SHT30;40438;52.992;18.604;2023-11-22T05:38:10;-3.40;86.02
54540;SHT30;40438;52.992;18.604;2023-11-22T05:40:36;-3.37;86.01
54540;SHT30;40438;52.992;18.604;2023-11-22T05:43:02;-3.37;85.98
54540;SHT30;40438;52.992;18.604;2023-11-22T05:45:28;-3.37;85.82
54540;SHT30;40438;52.992;18.604;2023-11-22T05:47:55;-3.41;85.94
54540;SHT30;40438;52.992;18.604;2023-11-22T05:50:21;-3.42;85.89
54540;SHT30;40438;52.992;18.604;2023-11-22T05:52:47;-3.41;85.86
54540;SHT30;40438;52.992;18.604;2023-11-22T05:55:13;-3.41;85.97
54540;SHT30;40438;52.992;18.604;2023-11-22T05:57:39;-3.42;85.95
54540;SHT30;40438;52.992;18.604;2023-11-22T06:00:06;-3.42;86.06
54540;SHT30;40438;52.992;18.604;2023-11-22T06:02:32;-3.42;86.25
54540;SHT30;40438;52.992;18.604;2023-11-22T06:04:59;-3.40;86.10
54540;SHT30;40438;52.992;18.604;2023-11-22T06:07:25;-3.37;85.90
54540;SHT30;40438;52.992;18.604;2023-11-22T06:09:50;-3.38;85.85
54540;SHT30;40438;52.992;18.604;2023-11-22T06:12:16;-3.40;85.82
54540;SHT30;40438;52.992;18.604;2023-11-22T06:14:42;-3.42;85.89
54540;SHT30;40438;52.992;18.604;2023-11-22T06:17:08;-3.51;86.03
54540;SHT30;40438;52.992;18.604;2023-11-22T06:19:34;-3.48;86.03
54540;SHT30;40438;52.992;18.604;2023-11-22T06:22:01;-3.50;86.19
54540;SHT30;40438;52.992;18.604;2023-11-22T06:24:27;-3.54;86.22
54540;SHT30;40438;52.992;18.604;2023-11-22T06:26:52;-3.54;86.25
54540;SHT30;40438;52.992;18.604;2023-11-22T06:29:18;-3.52;86.34
54540;SHT30;40438;52.992;18.604;2023-11-22T06:31:44;-3.51;86.34
54540;SHT30;40438;52.992;18.604;2023-11-22T06:34:10;-3.44;86.39
54540;SHT30;40438;52.992;18.604;2023-11-22T06:36:35;-3.38;86.35
54540;SHT30;40438;52.992;18.604;2023-11-22T06:39:03;-3.34;86.21
54540;SHT30;40438;52.992;18.604;2023-11-22T06:41:28;-3.30;86.00
54540;SHT30;40438;52.992;18.604;2023-11-22T06:43:54;-3.30;85.94
54540;SHT30;40438;52.992;18.604;2023-11-22T06:46:20;-3.30;86.14
54540;SHT30;40438;52.992;18.604;2023-11-22T06:48:46;-3.26;86.14
54540;SHT30;40438;52.992;18.604;2023-11-22T06:51:11;-3.26;86.11
54540;SHT30;40438;52.992;18.604;2023-11-22T06:53:37;-3.24;86.28
54540;SHT30;40438;52.992;18.604;2023-11-22T06:56:05;-3.19;86.46
54540;SHT30;40438;52.992;18.604;2023-11-22T06:58:31;-3.14;86.55
54540;SHT30;40438;52.992;18.604;2023-11-22T07:00:56;-3.04;86.50
54540;SHT30;40438;52.992;18.604;2023-11-22T07:03:22;-3.00;86.48
54540;SHT30;40438;52.992;18.604;2023-11-22T07:05:48;-3.06;86.60
54540;SHT30;40438;52.992;18.604;2023-11-22T07:08:14;-3.00;86.61
54540;SHT30;40438;52.992;18.604;2023-11-22T07:10:40;-2.93;86.62
54540;SHT30;40438;52.992;18.604;2023-11-22T07:13:07;-2.89;86.54
54540;SHT30;40438;52.992;18.604;2023-11-22T07:15:33;-2.83;86.61
54540;SHT30;40438;52.992;18.604;2023-11-22T07:17:58;-2.79;86.63
54540;SHT30;40438;52.992;18.604;2023-11-22T07:20:24;-2.75;86.83
54540;SHT30;40438;52.992;18.604;2023-11-22T07:22:50;-2.69;86.80
54540;SHT30;40438;52.992;18.604;2023-11-22T07:25:16;-2.61;86.68
54540;SHT30;40438;52.992;18.604;2023-11-22T07:27:41;-2.54;86.53
54540;SHT30;40438;52.992;18.604;2023-11-22T07:30:09;-2.50;86.33
54540;SHT30;40438;52.992;18.604;2023-11-22T07:32:35;-2.44;86.27
54540;SHT30;40438;52.992;18.604;2023-11-22T07:35:01;-2.31;86.17
54540;SHT30;40438;52.992;18.604;2023-11-22T07:37:27;-2.22;85.95
54540;SHT30;40438;52.992;18.604;2023-11-22T07:39:52;-2.20;86.05
54540;SHT30;40438;52.992;18.604;2023-11-22T07:42:18;-2.13;86.05
54540;SHT30;40438;52.992;18.604;2023-11-22T07:44:44;-2.14;86.01
54540;SHT30;40438;52.992;18.604;2023-11-22T07:47:11;-2.03;85.86
54540;SHT30;40438;52.992;18.604;2023-11-22T07:49:39;-1.94;85.54
54540;SHT30;40438;52.992;18.604;2023-11-22T07:52:05;-1.87;85.42
54540;SHT30;40438;52.992;18.604;2023-11-22T07:54:31;-1.83;84.71
54540;SHT30;40438;52.992;18.604;2023-11-22T07:56:57;-1.71;84.42
54540;SHT30;40438;52.992;18.604;2023-11-22T07:59:23;-1.62;84.06
54540;SHT30;40438;52.992;18.604;2023-11-22T08:01:49;-1.61;83.84
54540;SHT30;40438;52.992;18.604;2023-11-22T08:04:16;-1.49;83.83
54540;SHT30;40438;52.992;18.604;2023-11-22T08:06:42;-1.38;83.06
54540;SHT30;40438;52.992;18.604;2023-11-22T08:09:08;-1.37;83.24
54540;SHT30;40438;52.992;18.604;2023-11-22T08:11:33;-1.41;83.23
54540;SHT30;40438;52.992;18.604;2023-11-22T08:13:59;-1.37;83.39
54540;SHT30;40438;52.992;18.604;2023-11-22T08:16:25;-1.40;83.04
54540;SHT30;40438;52.992;18.604;2023-11-22T08:18:51;-1.25;82.84
54540;SHT30;40438;52.992;18.604;2023-11-22T08:21:18;-1.20;82.73
54540;SHT30;40438;52.992;18.604;2023-11-22T08:23:45;-1.20;82.51
54540;SHT30;40438;52.992;18.604;2023-11-22T08:26:11;-0.94;82.14
54540;SHT30;40438;52.992;18.604;2023-11-22T08:28:37;-0.79;81.83
54540;SHT30;40438;52.992;18.604;2023-11-22T08:31:02;-0.59;81.51
54540;SHT30;40438;52.992;18.604;2023-11-22T08:33:28;-0.34;80.36
54540;SHT30;40438;52.992;18.604;2023-11-22T08:35:54;0.06;78.34
54540;SHT30;40438;52.992;18.604;2023-11-22T08:38:21;0.19;76.58
54540;SHT30;40438;52.992;18.604;2023-11-22T08:40:47;0.27;76.50
54540;SHT30;40438;52.992;18.604;2023-11-22T08:43:13;0.45;75.98
54540;SHT30;40438;52.992;18.604;2023-11-22T08:45:38;0.44;75.72
54540;SHT30;40438;52.992;18.604;2023-11-22T08:48:04;0.48;74.35
54540;SHT30;40438;52.992;18.604;2023-11-22T08:50:30;0.66;71.55
54540;SHT30;40438;52.992;18.604;2023-11-22T08:52:56;0.89;70.48
54540;SHT30;40438;52.992;18.604;2023-11-22T08:55:23;0.95;70.19
54540;SHT30;40438;52.992;18.604;2023-11-22T08:57:49;1.06;69.40
54540;SHT30;40438;52.992;18.604;2023-11-22T09:00:15;1.10;68.61
54540;SHT30;40438;52.992;18.604;2023-11-22T09:02:41;1.27;66.19
54540;SHT30;40438;52.992;18.604;2023-11-22T09:05:07;1.33;65.90
54540;SHT30;40438;52.992;18.604;2023-11-22T09:07:33;1.58;65.60
54540;SHT30;40438;52.992;18.604;2023-11-22T09:09:59;1.67;66.02
54540;SHT30;40438;52.992;18.604;2023-11-22T09:12:26;1.96;64.47
54540;SHT30;40438;52.992;18.604;2023-11-22T09:14:52;1.93;64.35
54540;SHT30;40438;52.992;18.604;2023-11-22T09:17:18;1.89;63.74
54540;SHT30;40438;52.992;18.604;2023-11-22T09:19:44;2.06;62.93
54540;SHT30;40438;52.992;18.604;2023-11-22T09:22:09;2.24;61.57
54540;SHT30;40438;52.992;18.604;2023-11-22T09:24:35;2.27;60.49
54540;SHT30;40438;52.992;18.604;2023-11-22T09:27:01;2.24;60.62
54540;SHT30;40438;52.992;18.604;2023-11-22T09:29:28;2.09;61.14
54540;SHT30;40438;52.992;18.604;2023-11-22T09:31:54;1.88;60.61
54540;SHT30;40438;52.992;18.604;2023-11-22T09:34:20;1.85;61.74
54540;SHT30;40438;52.992;18.604;2023-11-22T09:36:45;1.74;62.35
54540;SHT30;40438;52.992;18.604;2023-11-22T09:39:11;1.58;61.62
54540;SHT30;40438;52.992;18.604;2023-11-22T09:41:37;1.46;61.97
54540;SHT30;40438;52.992;18.604;2023-11-22T09:44:03;1.44;62.77
54540;SHT30;40438;52.992;18.604;2023-11-22T09:46:31;1.34;63.65
54540;SHT30;40438;52.992;18.604;2023-11-22T09:48:57;1.54;64.16
54540;SHT30;40438;52.992;18.604;2023-11-22T09:51:23;1.34;61.89
54540;SHT30;40438;52.992;18.604;2023-11-22T09:53:53;1.54;61.70
54540;SHT30;40438;52.992;18.604;2023-11-22T09:56:20;1.74;61.95
54540;SHT30;40438;52.992;18.604;2023-11-22T09:58:46;1.93;60.58
54540;SHT30;40438;52.992;18.604;2023-11-22T10:01:15;1.62;61.14
54540;SHT30;40438;52.992;18.604;2023-11-22T10:03:43;1.59;61.94
54540;SHT30;40438;52.992;18.604;2023-11-22T10:06:09;1.48;62.95
54540;SHT30;40438;52.992;18.604;2023-11-22T10:08:35;1.55;62.52
54540;SHT30;40438;52.992;18.604;2023-11-22T10:11:01;1.69;62.73
54540;SHT30;40438;52.992;18.604;2023-11-22T10:13:27;1.55;61.32
54540;SHT30;40438;52.992;18.604;2023-11-22T10:15:53;1.59;61.85
54540;SHT30;40438;52.992;18.604;2023-11-22T10:18:19;1.55;59.91
54540;SHT30;40438;52.992;18.604;2023-11-22T10:20:48;1.61;60.23
54540;SHT30;40438;52.992;18.604;2023-11-22T10:23:15;1.82;60.80
54540;SHT30;40438;52.992;18.604;2023-11-22T10:25:46;2.09;57.98
54540;SHT30;40438;52.992;18.604;2023-11-22T10:28:12;2.23;57.83
54540;SHT30;40438;52.992;18.604;2023-11-22T10:30:37;2.10;57.34
54540;SHT30;40438;52.992;18.604;2023-11-22T10:33:04;2.09;57.87
54540;SHT30;40438;52.992;18.604;2023-11-22T10:35:30;1.95;57.91
54540;SHT30;40438;52.992;18.604;2023-11-22T10:37:59;2.05;58.46
54540;SHT30;40438;52.992;18.604;2023-11-22T10:40:24;2.24;59.04
54540;SHT30;40438;52.992;18.604;2023-11-22T10:42:51;2.62;57.29
54540;SHT30;40438;52.992;18.604;2023-11-22T10:45:17;2.78;56.94
54540;SHT30;40438;52.992;18.604;2023-11-22T10:47:43;3.20;56.34
54540;SHT30;40438;52.992;18.604;2023-11-22T10:50:09;3.39;55.14
54540;SHT30;40438;52.992;18.604;2023-11-22T10:52:35;3.66;54.11
54540;SHT30;40438;52.992;18.604;2023-11-22T10:55:04;3.63;53.58
54540;SHT30;40438;52.992;18.604;2023-11-22T10:57:32;3.42;54.26
54540;SHT30;40438;52.992;18.604;2023-11-22T11:00:01;3.51;54.27
54540;SHT30;40438;52.992;18.604;2023-11-22T11:02:28;3.53;54.55
54540;SHT30;40438;52.992;18.604;2023-11-22T11:04:59;3.85;54.66
54540;SHT30;40438;52.992;18.604;2023-11-22T11:07:29;3.99;53.46
54540;SHT30;40438;52.992;18.604;2023-11-22T11:09:56;4.05;53.50
54540;SHT30;40438;52.992;18.604;2023-11-22T11:12:24;4.18;52.98
54540;SHT30;40438;52.992;18.604;2023-11-22T11:14:50;3.81;53.13
54540;SHT30;40438;52.992;18.604;2023-11-22T11:17:16;3.85;53.63
54540;SHT30;40438;52.992;18.604;2023-11-22T11:19:42;3.70;53.68
54540;SHT30;40438;52.992;18.604;2023-11-22T11:22:09;3.54;54.42
54540;SHT30;40438;52.992;18.604;2023-11-22T11:24:38;3.74;54.40
54540;SHT30;40438;52.992;18.604;2023-11-22T11:27:06;3.79;54.19
54540;SHT30;40438;52.992;18.604;2023-11-22T11:29:34;3.73;53.84
54540;SHT30;40438;52.992;18.604;2023-11-22T11:32:02;3.36;54.28
54540;SHT30;40438;52.992;18.604;2023-11-22T11:34:28;3.60;54.61
54540;SHT30;40438;52.992;18.604;2023-11-22T11:36:54;3.84;53.79
54540;SHT30;40438;52.992;18.604;2023-11-22T11:39:25;4.18;53.93
54540;SHT30;40438;52.992;18.604;2023-11-22T11:41:50;4.06;52.56
54540;SHT30;40438;52.992;18.604;2023-11-22T11:44:17;4.34;52.42
54540;SHT30;40438;52.992;18.604;2023-11-22T11:46:44;3.95;52.11
54540;SHT30;40438;52.992;18.604;2023-11-22T11:49:12;3.54;53.39
54540;SHT30;40438;52.992;18.604;2023-11-22T11:51:38;3.82;53.24
54540;SHT30;40438;52.992;18.604;2023-11-22T11:54:04;3.77;53.17
54540;SHT30;40438;52.992;18.604;2023-11-22T11:56:31;4.12;52.33
54540;SHT30;40438;52.992;18.604;2023-11-22T11:58:58;4.34;51.71
54540;SHT30;40438;52.992;18.604;2023-11-22T12:01:27;4.33;51.72
54540;SHT30;40438;52.992;18.604;2023-11-22T12:03:54;4.36;52.13
54540;SHT30;40438;52.992;18.604;2023-11-22T12:06:21;4.56;51.71
54540;SHT30;40438;52.992;18.604;2023-11-22T12:08:47;4.74;51.25
54540;SHT30;40438;52.992;18.604;2023-11-22T12:11:13;4.61;50.79
54540;SHT30;40438;52.992;18.604;2023-11-22T12:13:39;4.50;51.66
54540;SHT30;40438;52.992;18.604;2023-11-22T12:16:06;4.40;50.63
54540;SHT30;40438;52.992;18.604;2023-11-22T12:18:39;4.52;51.02
54540;SHT30;40438;52.992;18.604;2023-11-22T12:21:08;4.53;51.02
54540;SHT30;40438;52.992;18.604;2023-11-22T12:23:34;4.23;52.02
54540;SHT30;40438;52.992;18.604;2023-11-22T12:26:02;3.92;53.13
54540;SHT30;40438;52.992;18.604;2023-11-22T12:28:29;4.01;52.64
54540;SHT30;40438;52.992;18.604;2023-11-22T12:30:55;3.42;54.86
54540;SHT30;40438;52.992;18.604;2023-11-22T12:33:32;3.71;54.37
54540;SHT30;40438;52.992;18.604;2023-11-22T12:35:58;3.85;54.44
54540;SHT30;40438;52.992;18.604;2023-11-22T12:38:27;3.68;55.06
54540;SHT30;40438;52.992;18.604;2023-11-22T12:40:56;3.64;55.60
54540;SHT30;40438;52.992;18.604;2023-11-22T12:43:22;3.53;55.95
54540;SHT30;40438;52.992;18.604;2023-11-22T12:45:58;3.54;56.51
54540;SHT30;40438;52.992;18.604;2023-11-22T12:48:25;3.95;56.05
54540;SHT30;40438;52.992;18.604;2023-11-22T12:50:51;3.85;55.53
54540;SHT30;40438;52.992;18.604;2023-11-22T12:53:17;3.60;55.66
54540;SHT30;40438;52.992;18.604;2023-11-22T12:55:45;3.61;56.01
54540;SHT30;40438;52.992;18.604;2023-11-22T12:58:11;3.54;56.44
54540;SHT30;40438;52.992;18.604;2023-11-22T13:00:37;3.74;55.63
54540;SHT30;40438;52.992;18.604;2023-11-22T13:03:03;2.99;56.61
54540;SHT30;40438;52.992;18.604;2023-11-22T13:05:28;3.08;56.98
54540;SHT30;40438;52.992;18.604;2023-11-22T13:07:54;2.85;57.15
54540;SHT30;40438;52.992;18.604;2023-11-22T13:10:20;3.00;57.31
54540;SHT30;40438;52.992;18.604;2023-11-22T13:12:47;3.10;57.46
54540;SHT30;40438;52.992;18.604;2023-11-22T13:15:13;2.99;57.37
54540;SHT30;40438;52.992;18.604;2023-11-22T13:17:39;2.96;56.90
54540;SHT30;40438;52.992;18.604;2023-11-22T13:20:06;2.69;56.77
54540;SHT30;40438;52.992;18.604;2023-11-22T13:22:33;2.53;57.16
54540;SHT30;40438;52.992;18.604;2023-11-22T13:24:58;2.36;58.16
54540;SHT30;40438;52.992;18.604;2023-11-22T13:27:24;2.26;59.14
54540;SHT30;40438;52.992;18.604;2023-11-22T13:29:51;2.32;59.20
54540;SHT30;40438;52.992;18.604;2023-11-22T13:32:17;2.36;60.72
54540;SHT30;40438;52.992;18.604;2023-11-22T13:34:43;2.23;60.52
54540;SHT30;40438;52.992;18.604;2023-11-22T13:37:08;2.11;61.22
54540;SHT30;40438;52.992;18.604;2023-11-22T13:39:34;1.83;62.01
54540;SHT30;40438;52.992;18.604;2023-11-22T13:42:00;1.86;62.56
54540;SHT30;40438;52.992;18.604;2023-11-22T13:44:26;1.61;63.71
54540;SHT30;40438;52.992;18.604;2023-11-22T13:46:53;1.37;65.23
54540;SHT30;40438;52.992;18.604;2023-11-22T13:49:19;1.24;65.40
54540;SHT30;40438;52.992;18.604;2023-11-22T13:51:49;1.07;66.14
54540;SHT30;40438;52.992;18.604;2023-11-22T13:54:15;1.06;66.33
54540;SHT30;40438;52.992;18.604;2023-11-22T13:56:40;0.93;66.55
54540;SHT30;40438;52.992;18.604;2023-11-22T13:59:06;0.88;67.02
54540;SHT30;40438;52.992;18.604;2023-11-22T14:01:32;0.93;67.10
54540;SHT30;40438;52.992;18.604;2023-11-22T14:03:59;1.03;66.72
54540;SHT30;40438;52.992;18.604;2023-11-22T14:06:25;0.92;67.03
54540;SHT30;40438;52.992;18.604;2023-11-22T14:08:51;0.97;67.02
54540;SHT30;40438;52.992;18.604;2023-11-22T14:11:17;0.99;67.07
54540;SHT30;40438;52.992;18.604;2023-11-22T14:13:43;0.97;67.34
54540;SHT30;40438;52.992;18.604;2023-11-22T14:16:08;0.93;67.53
54540;SHT30;40438;52.992;18.604;2023-11-22T14:18:34;0.96;67.81
54540;SHT30;40438;52.992;18.604;2023-11-22T14:21:01;0.90;68.14
54540;SHT30;40438;52.992;18.604;2023-11-22T14:23:27;0.88;68.38
54540;SHT30;40438;52.992;18.604;2023-11-22T14:25:53;0.86;68.08
54540;SHT30;40438;52.992;18.604;2023-11-22T14:28:19;0.86;68.51
54540;SHT30;40438;52.992;18.604;2023-11-22T14:30:44;0.80;68.79
54540;SHT30;40438;52.992;18.604;2023-11-22T14:33:10;0.69;69.14
54540;SHT30;40438;52.992;18.604;2023-11-22T14:35:36;0.65;69.72
54540;SHT30;40438;52.992;18.604;2023-11-22T14:38:03;0.68;69.58
54540;SHT30;40438;52.992;18.604;2023-11-22T14:40:29;0.61;69.73
54540;SHT30;40438;52.992;18.604;2023-11-22T14:42:55;0.65;69.64
54540;SHT30;40438;52.992;18.604;2023-11-22T14:45:20;0.51;69.99
54540;SHT30;40438;52.992;18.604;2023-11-22T14:47:47;0.34;70.80
54540;SHT30;40438;52.992;18.604;2023-11-22T14:50:12;0.37;70.64
54540;SHT30;40438;52.992;18.604;2023-11-22T14:52:38;0.30;71.41
54540;SHT30;40438;52.992;18.604;2023-11-22T14:55:06;0.26;71.41
54540;SHT30;40438;52.992;18.604;2023-11-22T14:57:32;0.23;71.63
54540;SHT30;40438;52.992;18.604;2023-11-22T14:59:58;0.20;72.08
54540;SHT30;40438;52.992;18.604;2023-11-22T15:02:24;0.20;71.85
54540;SHT30;40438;52.992;18.604;2023-11-22T15:04:51;0.19;71.99
54540;SHT30;40438;52.992;18.604;2023-11-22T15:07:17;0.10;72.53
54540;SHT30;40438;52.992;18.604;2023-11-22T15:09:42;0.00;73.32
54540;SHT30;40438;52.992;18.604;2023-11-22T15:12:10;0.00;73.12
54540;SHT30;40438;52.992;18.604;2023-11-22T15:14:36;0.07;73.14
54540;SHT30;40438;52.992;18.604;2023-11-22T15:17:01;0.00;73.39